createdAt,value
2023-05-12T00:01:37.160Z,8.35
2023-05-12T00:04:05.699Z,7.15
2023-05-12T00:06:33.974Z,8.05
2023-05-12T00:09:06.245Z,7.95
2023-05-12T00:11:35.704Z,7.10
2023-05-12T00:14:03.751Z,8.52
2023-05-12T00:16:34.152Z,8.13
2023-05-12T00:19:02.448Z,8.65
2023-05-12T00:21:31.173Z,7.60
2023-05-12T00:23:59.203Z,8.00
2023-05-12T00:26:27.664Z,7.72
2023-05-12T00:28:57.080Z,7.97
2023-05-12T00:31:25.240Z,7.63
2023-05-12T00:33:53.469Z,8.40
2023-05-12T00:36:21.697Z,7.78
2023-05-12T00:38:49.762Z,8.25
2023-05-12T00:41:17.778Z,7.78
2023-05-12T00:43:46.171Z,7.10
2023-05-12T00:46:15.845Z,7.18
2023-05-12T00:48:44.814Z,5.97
2023-05-12T00:51:17.556Z,5.60
2023-05-12T00:53:50.296Z,5.28
2023-05-12T00:56:20.216Z,5.30
2023-05-12T00:58:48.523Z,4.57
2023-05-12T01:01:18.136Z,4.72
2023-05-12T01:03:47.093Z,5.22
2023-05-12T01:06:20.947Z,5.07
2023-05-12T01:08:49.315Z,5.30
2023-05-12T01:11:17.377Z,4.40
2023-05-12T01:13:45.600Z,4.05
2023-05-12T01:16:16.401Z,3.67
2023-05-12T01:18:50.106Z,3.58
2023-05-12T01:21:19.460Z,3.33
2023-05-12T01:23:52.956Z,3.33
2023-05-12T01:26:23.070Z,3.17
2023-05-12T01:28:52.436Z,3.17
2023-05-12T01:31:21.425Z,2.95
2023-05-12T01:33:49.614Z,3.22
2023-05-12T01:36:17.711Z,3.20
2023-05-12T01:38:45.775Z,3.28
2023-05-12T01:41:13.794Z,3.53
2023-05-12T01:43:46.404Z,3.65
2023-05-12T01:46:14.622Z,3.45
2023-05-12T01:48:43.763Z,3.80
2023-05-12T01:51:11.822Z,4.65
2023-05-12T01:53:40.277Z,4.43
2023-05-12T01:56:08.521Z,4.72
2023-05-12T01:58:36.736Z,4.72
2023-05-12T02:01:06.304Z,4.90
2023-05-12T02:03:34.544Z,4.95
2023-05-12T02:06:02.657Z,5.60
2023-05-12T02:08:30.908Z,5.53
2023-05-12T02:11:07.077Z,5.50
2023-05-12T02:13:35.459Z,7.10
2023-05-12T02:16:08.813Z,6.43
2023-05-12T02:18:37.046Z,6.88
2023-05-12T02:21:05.561Z,7.47
2023-05-12T02:23:33.726Z,8.52
2023-05-12T02:26:01.975Z,7.35
2023-05-12T02:28:30.115Z,8.48
2023-05-12T02:30:58.205Z,9.07
2023-05-12T02:33:27.949Z,9.40
2023-05-12T02:35:56.631Z,9.45
2023-05-12T02:38:25.886Z,9.77
2023-05-12T02:40:54.330Z,9.82
2023-05-12T02:43:22.432Z,11.00
2023-05-12T02:45:50.524Z,11.20
2023-05-12T02:48:18.795Z,12.30
2023-05-12T02:50:48.467Z,13.20
2023-05-12T02:53:16.509Z,12.05
2023-05-12T02:55:44.581Z,12.82
2023-05-12T02:58:12.690Z,13.32
2023-05-12T03:00:40.866Z,12.77
2023-05-12T03:03:09.080Z,13.40
2023-05-12T03:05:37.424Z,13.82
2023-05-12T03:08:07.050Z,13.98
2023-05-12T03:10:35.754Z,14.27
2023-05-12T03:13:03.854Z,13.93
2023-05-12T03:15:31.907Z,15.43
2023-05-12T03:18:00.046Z,15.68
2023-05-12T03:20:28.300Z,16.52
2023-05-12T03:22:56.412Z,17.25
2023-05-12T03:25:25.928Z,16.05
2023-05-12T03:27:54.036Z,18.10
2023-05-12T03:30:22.966Z,18.13
2023-05-12T03:32:51.065Z,18.00
2023-05-12T03:35:19.301Z,18.60
2023-05-12T03:37:47.380Z,18.42
2023-05-12T03:40:19.141Z,19.83
2023-05-12T03:42:48.993Z,19.70
2023-05-12T03:45:17.131Z,19.27
2023-05-12T03:47:45.776Z,18.25
2023-05-12T03:50:13.957Z,18.65
2023-05-12T03:52:42.292Z,20.33
2023-05-12T03:55:10.955Z,19.83
2023-05-12T03:57:39.014Z,21.90
2023-05-12T04:00:09.938Z,21.42
2023-05-12T04:02:38.265Z,21.50
2023-05-12T04:05:08.329Z,22.20
2023-05-12T04:07:36.873Z,22.88
2023-05-12T04:10:05.464Z,22.20
2023-05-12T04:12:35.391Z,24.23
2023-05-12T04:15:04.186Z,24.42
2023-05-12T04:17:33.667Z,24.13
2023-05-12T04:20:02.344Z,23.33
2023-05-12T04:22:30.507Z,23.88
2023-05-12T04:24:58.561Z,24.35
2023-05-12T04:27:26.622Z,24.48
2023-05-12T04:29:54.951Z,23.52
2023-05-12T04:32:23.086Z,24.55
2023-05-12T04:34:55.308Z,25.65
2023-05-12T04:37:23.426Z,24.58
2023-05-12T04:39:51.685Z,26.10
2023-05-12T04:42:20.761Z,25.35
2023-05-12T04:44:49.298Z,26.95
2023-05-12T04:47:17.381Z,26.83
2023-05-12T04:49:45.504Z,27.48
2023-05-12T04:52:14.961Z,26.42
2023-05-12T04:54:43.130Z,27.40
2023-05-12T04:57:11.229Z,26.63
2023-05-12T04:59:41.202Z,27.05
2023-05-12T05:02:09.731Z,26.13
2023-05-12T05:04:37.807Z,26.45
2023-05-12T05:07:06.363Z,26.92
2023-05-12T05:09:40.677Z,29.45
2023-05-12T05:12:09.642Z,26.52
2023-05-12T05:14:40.859Z,27.08
2023-05-12T05:17:09.381Z,26.55
2023-05-12T05:19:49.231Z,26.98
2023-05-12T05:22:23.847Z,26.50
2023-05-12T05:24:56.357Z,25.10
2023-05-12T05:27:27.037Z,27.05
2023-05-12T05:29:55.350Z,26.60
2023-05-12T05:32:23.411Z,27.23
2023-05-12T05:34:51.600Z,27.30
2023-05-12T05:37:19.869Z,26.90
2023-05-12T05:39:48.124Z,25.85
2023-05-12T05:42:17.762Z,25.73
2023-05-12T05:44:45.865Z,25.83
2023-05-12T05:47:13.933Z,25.35
2023-05-12T05:49:42.304Z,25.83
2023-05-12T05:52:10.531Z,26.60
2023-05-12T05:54:38.590Z,27.15
2023-05-12T05:57:07.829Z,25.33
2023-05-12T05:59:37.668Z,26.80
2023-05-12T06:02:06.012Z,26.45
2023-05-12T06:04:34.167Z,26.60
2023-05-12T06:07:02.271Z,27.02
2023-05-12T06:09:30.486Z,27.33
2023-05-12T06:11:58.565Z,27.08
2023-05-12T06:14:26.697Z,25.80
2023-05-12T06:16:56.142Z,25.73
2023-05-12T06:19:24.407Z,26.73
2023-05-12T06:21:53.374Z,26.05
2023-05-12T06:24:21.446Z,24.70
2023-05-12T06:26:49.509Z,23.50
2023-05-12T06:29:19.875Z,24.45
2023-05-12T06:31:48.152Z,24.15
2023-05-12T06:34:17.671Z,23.60
2023-05-12T06:36:45.709Z,23.27
2023-05-12T06:39:13.814Z,22.65
2023-05-12T06:41:41.899Z,20.67
2023-05-12T06:44:12.759Z,21.50
2023-05-12T06:46:40.885Z,20.27
2023-05-12T06:49:09.424Z,19.98
2023-05-12T06:51:41.455Z,19.60
2023-05-12T06:54:09.582Z,18.58
2023-05-12T06:56:37.757Z,18.42
2023-05-12T06:59:05.855Z,17.27
2023-05-12T07:01:34.409Z,16.75
2023-05-12T07:04:02.715Z,16.10
2023-05-12T07:06:32.135Z,16.92
2023-05-12T07:09:01.544Z,15.20
2023-05-12T07:11:29.718Z,12.45
2023-05-12T07:13:57.740Z,13.73
2023-05-12T07:16:25.861Z,13.52
2023-05-12T07:18:54.086Z,13.15
2023-05-12T07:21:22.457Z,13.02
2023-05-12T07:23:50.575Z,14.00
2023-05-12T07:26:20.889Z,13.07
2023-05-12T07:28:48.937Z,13.20
2023-05-12T07:31:17.375Z,12.95
2023-05-12T07:33:46.172Z,13.43
2023-05-12T07:36:14.318Z,14.05
2023-05-12T07:38:42.526Z,12.45
2023-05-12T07:41:10.653Z,12.02
2023-05-12T07:43:40.121Z,11.77
2023-05-12T07:46:11.091Z,11.82
2023-05-12T07:48:40.434Z,11.75
2023-05-12T07:51:09.295Z,12.15
2023-05-12T07:53:37.702Z,11.38
2023-05-12T07:56:08.177Z,11.38
2023-05-12T07:58:36.240Z,10.55
2023-05-12T08:01:06.859Z,11.07
2023-05-12T08:03:36.503Z,10.40
2023-05-12T08:06:05.913Z,10.18
2023-05-12T08:08:33.971Z,10.57
2023-05-12T08:11:02.051Z,10.23
2023-05-12T08:13:30.162Z,8.32
2023-05-12T08:15:58.206Z,8.27
2023-05-12T08:18:28.370Z,8.77
2023-05-12T08:20:56.751Z,8.57
2023-05-12T08:23:24.930Z,8.43
2023-05-12T08:25:53.075Z,7.75
2023-05-12T08:28:21.353Z,8.13
2023-05-12T08:30:52.490Z,7.53
2023-05-12T08:33:20.875Z,6.80
2023-05-12T08:35:50.779Z,6.25
2023-05-12T08:38:19.077Z,5.32
2023-05-12T08:40:55.172Z,4.68
2023-05-12T08:43:26.546Z,4.55
2023-05-12T08:45:57.682Z,4.68
2023-05-12T08:48:30.420Z,4.18
2023-05-12T08:51:00.592Z,3.80
2023-05-12T08:53:30.233Z,3.40
2023-05-12T08:57:09.969Z,3.40
2023-05-12T08:58:50.105Z,3.45
2023-05-12T09:01:19.077Z,3.50
2023-05-12T09:03:47.469Z,3.42
2023-05-12T09:06:17.704Z,3.47
2023-05-12T09:08:46.910Z,3.00
2023-05-12T09:11:15.538Z,2.28
2023-05-12T09:13:49.861Z,2.33
2023-05-12T09:16:23.873Z,2.45
2023-05-12T09:18:54.174Z,2.70
2023-05-12T09:21:24.058Z,2.40
2023-05-12T09:23:56.916Z,2.70
2023-05-12T09:26:26.474Z,2.70
2023-05-12T09:28:56.288Z,2.33
2023-05-12T09:31:26.103Z,2.25
2023-05-12T09:33:54.347Z,2.40
2023-05-12T09:36:25.324Z,2.30
2023-05-12T09:39:04.800Z,2.58
2023-05-12T09:41:37.741Z,2.65
2023-05-12T09:44:07.899Z,2.45
2023-05-12T09:46:36.161Z,2.40
2023-05-12T09:49:04.525Z,2.50
2023-05-12T09:51:34.496Z,2.50
2023-05-12T09:56:38.221Z,2.72
2023-05-12T09:59:14.128Z,2.40
2023-05-12T10:01:43.146Z,2.40
2023-05-12T10:04:11.515Z,2.40
2023-05-12T10:06:43.195Z,2.40
2023-05-12T10:09:17.438Z,2.58
2023-05-12T10:11:46.406Z,2.70
2023-05-12T10:14:15.008Z,2.50
2023-05-12T10:16:43.048Z,2.30
2023-05-12T10:19:12.241Z,2.55
2023-05-12T10:21:44.644Z,2.50
2023-05-12T10:24:14.070Z,2.75
2023-05-12T10:26:44.803Z,2.60
2023-05-12T10:29:14.245Z,2.45
2023-05-12T10:31:45.358Z,2.42
2023-05-12T10:34:19.104Z,2.67
2023-05-12T10:36:54.316Z,2.70
2023-05-12T10:39:29.393Z,2.63
2023-05-12T10:42:02.728Z,2.30
2023-05-12T10:44:30.819Z,2.95
2023-05-12T10:46:59.724Z,2.30
2023-05-12T10:49:37.561Z,2.40
2023-05-12T10:52:07.924Z,2.20
2023-05-12T10:54:44.281Z,2.50
2023-05-12T10:57:18.675Z,2.90
2023-05-12T10:59:51.272Z,2.28
2023-05-12T11:04:53.244Z,2.17
2023-05-12T11:07:26.640Z,2.20
2023-05-12T11:10:01.224Z,2.20
2023-05-12T11:12:32.856Z,2.50
2023-05-12T11:15:02.465Z,2.35
2023-05-12T11:17:30.628Z,2.45
2023-05-12T11:19:59.023Z,2.33
2023-05-12T11:22:28.499Z,2.40
2023-05-12T11:24:56.664Z,2.50
2023-05-12T11:27:25.082Z,2.50
2023-05-12T11:30:01.336Z,2.25
2023-05-12T11:32:32.107Z,2.20
2023-05-12T11:35:10.519Z,2.30
2023-05-12T11:37:41.033Z,2.35
2023-05-12T11:40:20.235Z,2.30
2023-05-12T11:42:52.359Z,2.53
2023-05-12T11:45:24.980Z,2.40
2023-05-12T11:47:54.281Z,2.10
2023-05-12T11:50:24.277Z,2.53
2023-05-12T11:52:54.704Z,2.28
2023-05-12T11:55:24.686Z,2.17
2023-05-12T11:58:00.967Z,2.22
2023-05-12T12:00:34.082Z,2.60
2023-05-12T12:03:13.849Z,2.47
2023-05-12T12:05:46.964Z,2.20
2023-05-12T12:08:17.503Z,2.30
2023-05-12T12:10:46.142Z,2.55
2023-05-12T12:13:14.750Z,3.00
2023-05-12T12:15:42.932Z,2.63
2023-05-12T12:18:11.033Z,2.58
2023-05-12T12:20:39.311Z,2.97
2023-05-12T12:23:07.427Z,3.00
2023-05-12T12:25:37.377Z,3.17
2023-05-12T12:28:05.980Z,2.80
2023-05-12T12:30:34.613Z,2.80
2023-05-12T12:33:02.826Z,2.97
2023-05-12T12:35:31.270Z,2.60
2023-05-12T12:37:59.686Z,2.80
2023-05-12T12:40:27.846Z,2.50
2023-05-12T12:42:57.255Z,2.97
2023-05-12T12:45:25.655Z,2.80
2023-05-12T12:47:54.973Z,2.55
2023-05-12T12:50:24.466Z,2.60
2023-05-12T12:52:53.925Z,2.70
2023-05-12T12:55:22.397Z,2.83
2023-05-12T12:57:50.564Z,2.60
2023-05-12T13:00:21.423Z,2.50
2023-05-12T13:02:49.763Z,2.80
2023-05-12T13:05:18.284Z,3.47
2023-05-12T13:07:47.562Z,3.08
2023-05-12T13:10:16.622Z,3.33
2023-05-12T13:12:44.722Z,3.00
2023-05-12T13:15:15.152Z,3.85
2023-05-12T13:17:47.311Z,3.30
2023-05-12T13:20:16.250Z,3.20
2023-05-12T13:22:45.385Z,3.35
2023-05-12T13:25:13.447Z,3.40
2023-05-12T13:27:41.681Z,3.28
2023-05-12T13:30:13.317Z,3.40
2023-05-12T13:32:41.991Z,3.10
2023-05-12T13:35:11.831Z,3.17
2023-05-12T13:37:42.212Z,3.63
2023-05-12T13:40:11.252Z,3.17
2023-05-12T13:42:39.404Z,3.67
2023-05-12T13:45:09.259Z,3.70
2023-05-12T13:47:37.793Z,3.35
2023-05-12T13:50:07.028Z,3.40
2023-05-12T13:52:36.562Z,3.40
2023-05-12T13:55:04.969Z,3.22
2023-05-12T13:57:35.852Z,3.40
2023-05-12T14:00:04.077Z,3.58
2023-05-12T14:02:32.154Z,3.97
2023-05-12T14:05:02.498Z,3.83
2023-05-12T14:07:30.595Z,3.88
2023-05-12T14:10:00.794Z,4.18
2023-05-12T14:12:29.128Z,4.18
2023-05-12T14:15:16.875Z,3.50
2023-05-12T14:17:48.266Z,4.03
2023-05-12T14:20:16.519Z,3.72
2023-05-12T14:22:44.631Z,3.25
2023-05-12T14:25:14.174Z,3.63
2023-05-12T14:27:45.424Z,3.60
2023-05-12T14:30:14.517Z,3.60
2023-05-12T14:32:42.863Z,3.50
2023-05-12T14:35:14.158Z,3.28
2023-05-12T14:37:42.251Z,3.63
2023-05-12T14:40:12.153Z,3.60
2023-05-12T14:42:42.384Z,3.30
2023-05-12T14:45:11.421Z,2.95
2023-05-12T14:47:39.543Z,3.20
2023-05-12T14:50:08.563Z,3.08
2023-05-12T14:52:38.564Z,3.50
2023-05-12T14:55:11.488Z,3.22
2023-05-12T14:57:41.819Z,3.30
2023-05-12T15:00:11.938Z,3.20
2023-05-12T15:02:41.123Z,3.25
2023-05-12T15:05:10.814Z,3.10
2023-05-12T15:07:42.021Z,2.60
2023-05-12T15:10:10.900Z,3.17
2023-05-12T15:12:38.941Z,3.22
2023-05-12T15:15:11.590Z,3.20
2023-05-12T15:17:40.012Z,3.10
2023-05-12T15:20:09.964Z,2.75
2023-05-12T15:22:38.176Z,2.90
2023-05-12T15:25:07.905Z,3.40
2023-05-12T15:27:36.279Z,3.10
2023-05-12T15:30:04.901Z,3.00
2023-05-12T15:32:34.845Z,3.50
2023-05-12T15:35:03.060Z,3.40
2023-05-12T15:37:31.107Z,3.13
2023-05-12T15:39:59.170Z,3.35
2023-05-12T15:42:32.993Z,3.60
2023-05-12T15:45:01.607Z,3.60
2023-05-12T15:47:32.151Z,3.10
2023-05-12T15:50:01.605Z,4.20
2023-05-12T15:52:29.723Z,3.50
2023-05-12T15:54:58.044Z,3.88
2023-05-12T15:57:26.450Z,3.50
2023-05-12T15:59:59.349Z,3.53
2023-05-12T16:02:27.908Z,3.45
2023-05-12T16:04:56.354Z,3.30
2023-05-12T16:07:29.416Z,3.40
2023-05-12T16:09:57.960Z,3.67
2023-05-12T16:12:26.304Z,3.50
2023-05-12T16:15:01.450Z,3.47
2023-05-12T16:17:30.557Z,3.85
2023-05-12T16:19:58.841Z,3.65
2023-05-12T16:22:28.317Z,3.55
2023-05-12T16:24:57.586Z,3.78
2023-05-12T16:27:25.758Z,3.60
2023-05-12T16:29:55.528Z,3.80
2023-05-12T16:32:23.830Z,3.70
2023-05-12T16:34:52.212Z,3.50
2023-05-12T16:37:20.550Z,3.65
2023-05-12T16:39:50.263Z,3.20
2023-05-12T16:42:18.710Z,3.30
2023-05-12T16:44:47.187Z,3.38
2023-05-12T16:47:15.484Z,2.67
2023-05-12T16:49:43.787Z,2.58
2023-05-12T16:52:12.589Z,2.42
2023-05-12T16:54:41.057Z,2.55
2023-05-12T16:57:10.522Z,2.30
2023-05-12T16:59:39.780Z,2.67
2023-05-12T17:02:08.577Z,2.65
2023-05-12T17:04:36.761Z,2.83
2023-05-12T17:07:05.284Z,2.60
2023-05-12T17:09:33.800Z,2.42
2023-05-12T17:12:02.944Z,2.45
2023-05-12T17:14:35.880Z,2.28
2023-05-12T17:17:04.912Z,2.63
2023-05-12T17:19:33.642Z,2.50
2023-05-12T17:22:02.236Z,2.20
2023-05-12T17:24:30.353Z,2.25
2023-05-12T17:26:58.935Z,2.33
2023-05-12T17:29:27.101Z,2.28
2023-05-12T17:31:56.751Z,2.20
2023-05-12T17:34:24.938Z,1.90
2023-05-12T17:36:52.965Z,2.05
2023-05-12T17:39:21.019Z,2.25
2023-05-12T17:41:49.120Z,1.98
2023-05-12T17:44:19.988Z,1.92
2023-05-12T17:46:48.548Z,2.13
2023-05-12T17:49:17.987Z,1.80
2023-05-12T17:51:46.065Z,2.30
2023-05-12T17:54:14.562Z,2.30
2023-05-12T17:56:42.827Z,2.15
2023-05-12T17:59:11.520Z,2.20
2023-05-12T18:01:39.862Z,2.28
2023-05-12T18:04:08.273Z,2.17
2023-05-12T18:06:37.772Z,2.20
2023-05-12T18:09:06.165Z,2.40
2023-05-12T18:11:34.591Z,2.50
2023-05-12T18:14:05.955Z,2.25
2023-05-12T18:16:34.458Z,2.35
2023-05-12T18:19:02.606Z,2.38
2023-05-12T18:21:30.992Z,2.40
2023-05-12T18:24:03.749Z,3.53
2023-05-12T18:26:31.964Z,3.58
2023-05-12T18:29:02.861Z,3.85
2023-05-12T18:31:31.112Z,4.00
2023-05-12T18:33:59.441Z,3.38
2023-05-12T18:36:28.689Z,2.55
2023-05-12T18:38:59.007Z,2.75
2023-05-12T18:41:28.600Z,2.58
2023-05-12T18:43:56.826Z,2.83
2023-05-12T18:46:24.942Z,2.60
2023-05-12T18:48:53.257Z,2.90
2023-05-12T18:51:21.303Z,2.85
2023-05-12T18:53:49.890Z,2.92
2023-05-12T18:56:17.928Z,3.03
2023-05-12T18:58:47.488Z,3.83
2023-05-12T19:01:17.066Z,3.58
2023-05-12T19:03:45.565Z,3.60
2023-05-12T19:06:14.059Z,3.92
2023-05-12T19:08:42.198Z,3.45
2023-05-12T19:11:10.351Z,4.03
2023-05-12T19:13:45.394Z,3.83
2023-05-12T19:16:14.910Z,4.38
2023-05-12T19:18:42.998Z,3.67
2023-05-12T19:21:11.328Z,3.58
2023-05-12T19:23:39.474Z,4.20
2023-05-12T19:26:11.105Z,4.07
2023-05-12T19:28:39.321Z,4.35
2023-05-12T19:31:07.456Z,3.85
2023-05-12T19:33:36.980Z,3.70
2023-05-12T19:36:05.503Z,4.05
2023-05-12T19:38:33.608Z,4.28
2023-05-12T19:41:01.696Z,4.38
2023-05-12T19:43:29.735Z,4.10
2023-05-12T19:45:57.937Z,4.10
2023-05-12T19:48:26.154Z,4.40
2023-05-12T19:50:56.181Z,4.72
2023-05-12T19:53:24.214Z,4.40
2023-05-12T19:55:55.252Z,5.13
2023-05-12T19:58:23.366Z,4.85
2023-05-12T20:00:51.538Z,4.95
2023-05-12T20:03:19.846Z,4.68
2023-05-12T20:05:48.752Z,4.63
2023-05-12T20:08:18.342Z,4.80
2023-05-12T20:10:46.864Z,5.18
2023-05-12T20:13:14.940Z,5.55
2023-05-12T20:15:44.142Z,4.90
2023-05-12T20:18:14.636Z,4.88
2023-05-12T20:20:43.399Z,4.90
2023-05-12T20:23:11.441Z,5.28
2023-05-12T20:25:40.959Z,5.65
2023-05-12T20:28:09.674Z,5.70
2023-05-12T20:30:37.907Z,6.70
2023-05-12T20:33:06.135Z,6.22
2023-05-12T20:35:34.334Z,6.75
2023-05-12T20:38:02.914Z,6.53
2023-05-12T20:40:31.109Z,6.10
2023-05-12T20:43:03.777Z,6.43
2023-05-12T20:45:31.989Z,6.43
2023-05-12T20:48:00.234Z,5.93
2023-05-12T20:50:28.457Z,6.10
2023-05-12T20:52:56.481Z,6.13
2023-05-12T20:55:25.672Z,5.72
2023-05-12T20:57:53.763Z,5.68
2023-05-12T21:00:23.617Z,6.15
2023-05-12T21:02:52.359Z,6.72
2023-05-12T21:05:21.266Z,7.03
2023-05-12T21:07:52.118Z,7.18
2023-05-12T21:10:21.179Z,6.40
2023-05-12T21:12:49.382Z,6.47
2023-05-12T21:15:17.447Z,6.07
2023-05-12T21:17:49.747Z,6.10
2023-05-12T21:20:17.844Z,5.53
2023-05-12T21:22:48.887Z,5.65
2023-05-12T21:25:17.070Z,5.10
2023-05-12T21:27:45.881Z,5.20
2023-05-12T21:30:14.197Z,5.40
2023-05-12T21:32:42.291Z,5.32
2023-05-12T21:35:12.125Z,5.57
2023-05-12T21:37:40.285Z,5.30
2023-05-12T21:40:12.079Z,5.35
2023-05-12T21:42:40.240Z,5.25
2023-05-12T21:45:09.312Z,5.18
2023-05-12T21:47:37.521Z,5.35
2023-05-12T21:50:06.316Z,4.60
2023-05-12T21:52:38.525Z,4.90
2023-05-12T21:55:07.345Z,4.50
2023-05-12T21:57:35.743Z,5.03
2023-05-12T22:00:04.326Z,4.78
2023-05-12T22:02:32.424Z,4.60
2023-05-12T22:05:01.064Z,4.95
2023-05-12T22:07:29.535Z,4.57
2023-05-12T22:09:58.985Z,5.32
2023-05-12T22:12:27.158Z,4.82
2023-05-12T22:14:55.331Z,5.00
2023-05-12T22:17:23.471Z,4.57
2023-05-12T22:19:51.682Z,4.72
2023-05-12T22:22:19.807Z,5.10
2023-05-12T22:24:51.886Z,4.60
2023-05-12T22:27:22.515Z,4.40
2023-05-12T22:29:50.664Z,4.50
2023-05-12T22:32:18.710Z,4.15
2023-05-12T22:34:46.803Z,4.50
2023-05-12T22:37:14.843Z,4.20
2023-05-12T22:39:42.893Z,4.18
2023-05-12T22:42:10.918Z,4.18
2023-05-12T22:44:40.384Z,3.95
2023-05-12T22:47:08.810Z,3.90
2023-05-12T22:49:36.940Z,4.40
2023-05-12T22:52:06.044Z,3.63
2023-05-12T22:54:34.285Z,4.05
2023-05-12T22:57:02.344Z,3.85
2023-05-12T22:59:30.483Z,3.90
2023-05-12T23:01:59.892Z,4.13
2023-05-12T23:04:28.212Z,3.60
2023-05-12T23:06:56.432Z,3.75
2023-05-12T23:09:24.537Z,3.72
2023-05-12T23:11:52.544Z,3.65
2023-05-12T23:14:20.651Z,4.00
2023-05-12T23:16:48.782Z,4.15
2023-05-12T23:19:18.278Z,4.22
2023-05-12T23:21:46.333Z,3.85
2023-05-12T23:24:14.426Z,3.95
2023-05-12T23:26:42.474Z,4.00
2023-05-12T23:29:10.600Z,4.70
2023-05-12T23:31:38.732Z,4.20
2023-05-12T23:34:06.809Z,3.85
2023-05-12T23:36:36.227Z,4.20
2023-05-12T23:39:04.623Z,3.88
2023-05-12T23:41:34.040Z,3.70
2023-05-12T23:44:02.367Z,3.53
2023-05-12T23:46:30.625Z,3.97
2023-05-12T23:48:58.769Z,3.75
2023-05-12T23:51:28.589Z,3.85
2023-05-12T23:53:58.100Z,3.72
2023-05-12T23:56:26.427Z,4.13
2023-05-12T23:58:54.487Z,3.80
